sensor_id;sensor_type;location;lat;lon;timestamp;temperature;humidity
1383;DHT22;685;47.196;11.880;2023-02-21T00:00:14;5.10;99.90
1383;DHT22;685;47.196;11.880;2023-02-21T00:02:58;5.40;99.90
1383;DHT22;685;47.196;11.880;2023-02-21T00:05:44;5.30;99.90
1383;DHT22;685;47.196;11.880;2023-02-21T00:08:28;5.30;99.90
1383;DHT22;685;47.196;11.880;2023-02-21T00:11:13;5.60;99.90
1383;DHT22;685;47.196;11.880;2023-02-21T00:13:57;5.70;99.90
1383;DHT22;685;47.196;11.880;2023-02-21T00:16:42;5.30;99.90
1383;DHT22;685;47.196;11.880;2023-02-21T00:19:27;5.20;99.90
1383;DHT22;685;47.196;11.880;2023-02-21T00:22:12;5.10;99.90
1383;DHT22;685;47.196;11.880;2023-02-21T00:24:57;5.20;99.90
1383;DHT22;685;47.196;11.880;2023-02-21T00:27:41;5.20;99.90
1383;DHT22;685;47.196;11.880;2023-02-21T00:30:25;5.20;99.90
1383;DHT22;685;47.196;11.880;2023-02-21T00:33:09;5.40;99.90
1383;DHT22;685;47.196;11.880;2023-02-21T00:35:53;5.40;99.90
1383;DHT22;685;47.196;11.880;2023-02-21T00:38:39;5.30;99.90
1383;DHT22;685;47.196;11.880;2023-02-21T00:41:23;5.40;99.90
1383;DHT22;685;47.196;11.880;2023-02-21T00:44:08;5.30;99.90
1383;DHT22;685;47.196;11.880;2023-02-21T00:46:52;5.10;99.90
1383;DHT22;685;47.196;11.880;2023-02-21T00:49:36;5.20;99.90
1383;DHT22;685;47.196;11.880;2023-02-21T00:52:20;5.30;99.90
1383;DHT22;685;47.196;11.880;2023-02-21T00:55:06;5.30;99.90
1383;DHT22;685;47.196;11.880;2023-02-21T00:57:50;5.10;99.90
1383;DHT22;685;47.196;11.880;2023-02-21T01:00:34;4.80;99.90
1383;DHT22;685;47.196;11.880;2023-02-21T01:03:18;4.90;99.90
1383;DHT22;685;47.196;11.880;2023-02-21T01:06:08;5.00;99.90
1383;DHT22;685;47.196;11.880;2023-02-21T01:08:53;5.10;99.90
1383;DHT22;685;47.196;11.880;2023-02-21T01:11:39;4.60;99.90
1383;DHT22;685;47.196;11.880;2023-02-21T01:14:23;4.40;99.90
1383;DHT22;685;47.196;11.880;2023-02-21T01:17:07;4.60;99.90
1383;DHT22;685;47.196;11.880;2023-02-21T01:19:52;4.80;99.90
1383;DHT22;685;47.196;11.880;2023-02-21T01:22:36;4.70;99.90
1383;DHT22;685;47.196;11.880;2023-02-21T01:25:20;4.80;99.90
1383;DHT22;685;47.196;11.880;2023-02-21T01:28:06;4.70;99.90
1383;DHT22;685;47.196;11.880;2023-02-21T01:30:50;4.60;99.90
1383;DHT22;685;47.196;11.880;2023-02-21T01:33:37;4.80;99.90
1383;DHT22;685;47.196;11.880;2023-02-21T01:36:21;4.80;99.90
1383;DHT22;685;47.196;11.880;2023-02-21T01:39:06;4.50;99.90
1383;DHT22;685;47.196;11.880;2023-02-21T01:41:50;4.50;99.90
1383;DHT22;685;47.196;11.880;2023-02-21T01:44:38;4.60;99.90
1383;DHT22;685;47.196;11.880;2023-02-21T01:47:22;4.80;99.90
1383;DHT22;685;47.196;11.880;2023-02-21T01:50:13;4.80;99.90
1383;DHT22;685;47.196;11.880;2023-02-21T01:53:02;4.60;99.90
1383;DHT22;685;47.196;11.880;2023-02-21T01:55:48;4.70;99.90
1383;DHT22;685;47.196;11.880;2023-02-21T01:58:33;4.50;99.90
1383;DHT22;685;47.196;11.880;2023-02-21T02:01:27;4.30;99.90
1383;DHT22;685;47.196;11.880;2023-02-21T02:04:12;4.20;99.90
1383;DHT22;685;47.196;11.880;2023-02-21T02:06:57;4.20;99.90
1383;DHT22;685;47.196;11.880;2023-02-21T02:09:41;4.20;99.90
1383;DHT22;685;47.196;11.880;2023-02-21T02:12:43;4.40;99.90
1383;DHT22;685;47.196;11.880;2023-02-21T02:15:42;4.40;99.90
1383;DHT22;685;47.196;11.880;2023-02-21T02:21:35;4.50;99.90
1383;DHT22;685;47.196;11.880;2023-02-21T02:30:34;4.40;99.90
1383;DHT22;685;47.196;11.880;2023-02-21T02:33:41;4.40;99.90
1383;DHT22;685;47.196;11.880;2023-02-21T02:36:13;4.20;99.90
1383;DHT22;685;47.196;11.880;2023-02-21T02:38:49;4.30;99.90
1383;DHT22;685;47.196;11.880;2023-02-21T02:41:25;4.40;99.90
1383;DHT22;685;47.196;11.880;2023-02-21T02:43:58;4.30;99.90
1383;DHT22;685;47.196;11.880;2023-02-21T02:46:29;4.40;99.90
1383;DHT22;685;47.196;11.880;2023-02-21T02:48:59;4.50;99.90
1383;DHT22;685;47.196;11.880;2023-02-21T02:51:29;4.30;99.90
1383;DHT22;685;47.196;11.880;2023-02-21T02:53:58;4.50;99.90
1383;DHT22;685;47.196;11.880;2023-02-21T02:56:25;4.10;99.90
1383;DHT22;685;47.196;11.880;2023-02-21T02:58:57;3.60;99.90
1383;DHT22;685;47.196;11.880;2023-02-21T03:04:53;4.20;99.90
1383;DHT22;685;47.196;11.880;2023-02-21T03:07:29;4.40;99.90
1383;DHT22;685;47.196;11.880;2023-02-21T03:10:03;3.40;99.90
1383;DHT22;685;47.196;11.880;2023-02-21T03:12:34;3.10;99.90
1383;DHT22;685;47.196;11.880;2023-02-21T03:15:07;3.40;99.90
1383;DHT22;685;47.196;11.880;2023-02-21T03:17:40;3.80;99.90
1383;DHT22;685;47.196;11.880;2023-02-21T03:20:10;3.80;99.90
1383;DHT22;685;47.196;11.880;2023-02-21T03:22:40;3.90;99.90
1383;DHT22;685;47.196;11.880;2023-02-21T03:25:09;4.00;99.90
1383;DHT22;685;47.196;11.880;2023-02-21T03:27:38;4.00;99.90
1383;DHT22;685;47.196;11.880;2023-02-21T03:30:08;3.80;99.90
1383;DHT22;685;47.196;11.880;2023-02-21T03:32:37;3.70;99.90
1383;DHT22;685;47.196;11.880;2023-02-21T03:35:05;4.00;99.90
1383;DHT22;685;47.196;11.880;2023-02-21T03:37:35;4.10;99.90
1383;DHT22;685;47.196;11.880;2023-02-21T03:40:07;4.30;99.90
1383;DHT22;685;47.196;11.880;2023-02-21T03:42:35;3.80;99.90
1383;DHT22;685;47.196;11.880;2023-02-21T03:45:02;3.80;99.90
1383;DHT22;685;47.196;11.880;2023-02-21T03:47:29;3.60;99.90
1383;DHT22;685;47.196;11.880;2023-02-21T03:49:56;3.70;99.90
1383;DHT22;685;47.196;11.880;2023-02-21T03:52:23;3.70;99.90
1383;DHT22;685;47.196;11.880;2023-02-21T03:54:50;3.80;99.90
1383;DHT22;685;47.196;11.880;2023-02-21T03:57:18;4.10;99.90
1383;DHT22;685;47.196;11.880;2023-02-21T03:59:45;4.20;99.90
1383;DHT22;685;47.196;11.880;2023-02-21T04:02:13;4.00;99.90
1383;DHT22;685;47.196;11.880;2023-02-21T04:04:40;4.00;99.90
1383;DHT22;685;47.196;11.880;2023-02-21T04:07:07;4.10;99.90
1383;DHT22;685;47.196;11.880;2023-02-21T04:09:35;4.10;99.90
1383;DHT22;685;47.196;11.880;2023-02-21T04:12:04;3.80;99.90
1383;DHT22;685;47.196;11.880;2023-02-21T04:14:32;3.90;99.90
1383;DHT22;685;47.196;11.880;2023-02-21T04:16:59;4.10;99.90
1383;DHT22;685;47.196;11.880;2023-02-21T04:19:26;4.00;99.90
1383;DHT22;685;47.196;11.880;2023-02-21T04:21:53;3.20;99.90
1383;DHT22;685;47.196;11.880;2023-02-21T04:24:20;3.00;99.90
1383;DHT22;685;47.196;11.880;2023-02-21T04:26:47;2.90;99.90
1383;DHT22;685;47.196;11.880;2023-02-21T04:29:14;2.60;99.90
1383;DHT22;685;47.196;11.880;2023-02-21T04:31:42;2.60;99.90
1383;DHT22;685;47.196;11.880;2023-02-21T04:34:09;2.70;99.90
1383;DHT22;685;47.196;11.880;2023-02-21T04:39:04;1.90;99.90
1383;DHT22;685;47.196;11.880;2023-02-21T04:41:31;2.00;99.90
1383;DHT22;685;47.196;11.880;2023-02-21T04:43:58;2.60;99.90
1383;DHT22;685;47.196;11.880;2023-02-21T04:46:25;2.80;99.90
1383;DHT22;685;47.196;11.880;2023-02-21T04:48:54;3.00;99.90
1383;DHT22;685;47.196;11.880;2023-02-21T04:51:22;3.20;99.90
1383;DHT22;685;47.196;11.880;2023-02-21T04:53:50;3.30;99.90
1383;DHT22;685;47.196;11.880;2023-02-21T04:56:19;3.20;99.90
1383;DHT22;685;47.196;11.880;2023-02-21T04:58:46;3.10;99.90
1383;DHT22;685;47.196;11.880;2023-02-21T05:01:14;3.30;99.90
1383;DHT22;685;47.196;11.880;2023-02-21T05:03:41;3.30;99.90
1383;DHT22;685;47.196;11.880;2023-02-21T05:06:09;3.20;99.90
1383;DHT22;685;47.196;11.880;2023-02-21T05:08:36;3.20;99.90
1383;DHT22;685;47.196;11.880;2023-02-21T05:11:03;3.30;99.90
1383;DHT22;685;47.196;11.880;2023-02-21T05:13:30;3.20;99.90
1383;DHT22;685;47.196;11.880;2023-02-21T05:15:57;3.20;99.90
1383;DHT22;685;47.196;11.880;2023-02-21T05:18:24;3.20;99.90
1383;DHT22;685;47.196;11.880;2023-02-21T05:20:53;3.20;99.90
1383;DHT22;685;47.196;11.880;2023-02-21T05:23:21;3.30;99.90
1383;DHT22;685;47.196;11.880;2023-02-21T05:25:58;3.40;99.90
1383;DHT22;685;47.196;11.880;2023-02-21T05:28:26;3.50;99.90
1383;DHT22;685;47.196;11.880;2023-02-21T05:30:53;3.50;99.90
1383;DHT22;685;47.196;11.880;2023-02-21T05:33:20;3.40;99.90
1383;DHT22;685;47.196;11.880;2023-02-21T05:35:47;3.30;99.90
1383;DHT22;685;47.196;11.880;2023-02-21T05:38:15;3.00;99.90
1383;DHT22;685;47.196;11.880;2023-02-21T05:40:43;2.70;99.90
1383;DHT22;685;47.196;11.880;2023-02-21T05:43:10;2.60;99.90
1383;DHT22;685;47.196;11.880;2023-02-21T05:45:37;2.80;99.90
1383;DHT22;685;47.196;11.880;2023-02-21T05:48:04;2.90;99.90
1383;DHT22;685;47.196;11.880;2023-02-21T05:50:31;3.10;99.90
1383;DHT22;685;47.196;11.880;2023-02-21T05:52:59;3.30;99.90
1383;DHT22;685;47.196;11.880;2023-02-21T05:55:27;3.10;99.90
1383;DHT22;685;47.196;11.880;2023-02-21T05:57:55;3.00;99.90
1383;DHT22;685;47.196;11.880;2023-02-21T06:00:32;3.10;99.90
1383;DHT22;685;47.196;11.880;2023-02-21T06:03:05;3.10;99.90
1383;DHT22;685;47.196;11.880;2023-02-21T06:05:50;3.20;99.90
1383;DHT22;685;47.196;11.880;2023-02-21T06:08:46;3.40;99.90
1383;DHT22;685;47.196;11.880;2023-02-21T06:11:20;3.40;99.90
1383;DHT22;685;47.196;11.880;2023-02-21T06:13:59;3.30;99.90
1383;DHT22;685;47.196;11.880;2023-02-21T06:16:35;3.30;99.90
1383;DHT22;685;47.196;11.880;2023-02-21T06:19:17;3.00;99.90
1383;DHT22;685;47.196;11.880;2023-02-21T06:21:49;2.80;99.90
1383;DHT22;685;47.196;11.880;2023-02-21T06:28:01;2.70;99.90
1383;DHT22;685;47.196;11.880;2023-02-21T06:40:50;3.30;99.90
1383;DHT22;685;47.196;11.880;2023-02-21T06:43:20;3.30;99.90
1383;DHT22;685;47.196;11.880;2023-02-21T06:45:48;3.10;99.90
1383;DHT22;685;47.196;11.880;2023-02-21T06:48:16;3.20;99.90
1383;DHT22;685;47.196;11.880;2023-02-21T06:50:44;3.20;99.90
1383;DHT22;685;47.196;11.880;2023-02-21T06:53:12;2.90;99.90
1383;DHT22;685;47.196;11.880;2023-02-21T06:55:39;2.90;99.90
1383;DHT22;685;47.196;11.880;2023-02-21T06:58:06;3.10;99.90
1383;DHT22;685;47.196;11.880;2023-02-21T07:00:33;3.40;99.90
1383;DHT22;685;47.196;11.880;2023-02-21T07:03:00;3.50;99.90
1383;DHT22;685;47.196;11.880;2023-02-21T07:05:27;3.60;99.90
1383;DHT22;685;47.196;11.880;2023-02-21T07:07:59;3.60;99.90
1383;DHT22;685;47.196;11.880;2023-02-21T07:10:27;3.30;99.90
1383;DHT22;685;47.196;11.880;2023-02-21T07:12:54;3.30;99.90
1383;DHT22;685;47.196;11.880;2023-02-21T07:15:21;3.60;99.90
1383;DHT22;685;47.196;11.880;2023-02-21T07:17:48;3.70;99.90
1383;DHT22;685;47.196;11.880;2023-02-21T07:20:16;3.80;99.90
1383;DHT22;685;47.196;11.880;2023-02-21T07:22:43;3.80;99.90
1383;DHT22;685;47.196;11.880;2023-02-21T07:25:13;3.80;99.90
1383;DHT22;685;47.196;11.880;2023-02-21T07:27:42;3.90;99.90
1383;DHT22;685;47.196;11.880;2023-02-21T07:30:10;3.90;99.90
1383;DHT22;685;47.196;11.880;2023-02-21T07:32:37;3.90;99.90
1383;DHT22;685;47.196;11.880;2023-02-21T07:35:05;3.80;99.90
1383;DHT22;685;47.196;11.880;2023-02-21T07:37:32;3.60;99.90
1383;DHT22;685;47.196;11.880;2023-02-21T07:39:58;3.70;99.90
1383;DHT22;685;47.196;11.880;2023-02-21T07:42:25;3.60;99.90
1383;DHT22;685;47.196;11.880;2023-02-21T07:44:55;3.40;99.90
1383;DHT22;685;47.196;11.880;2023-02-21T07:47:23;3.30;99.90
1383;DHT22;685;47.196;11.880;2023-02-21T07:49:50;3.40;99.90
1383;DHT22;685;47.196;11.880;2023-02-21T07:52:18;3.50;99.90
1383;DHT22;685;47.196;11.880;2023-02-21T07:54:45;3.60;99.90
1383;DHT22;685;47.196;11.880;2023-02-21T07:57:14;3.60;99.90
1383;DHT22;685;47.196;11.880;2023-02-21T07:59:41;3.60;99.90
1383;DHT22;685;47.196;11.880;2023-02-21T08:02:10;3.60;99.90
1383;DHT22;685;47.196;11.880;2023-02-21T08:04:37;3.50;99.90
1383;DHT22;685;47.196;11.880;2023-02-21T08:07:05;3.50;99.90
1383;DHT22;685;47.196;11.880;2023-02-21T08:09:32;3.60;99.90
1383;DHT22;685;47.196;11.880;2023-02-21T08:11:59;3.70;99.90
1383;DHT22;685;47.196;11.880;2023-02-21T08:14:26;3.80;99.90
1383;DHT22;685;47.196;11.880;2023-02-21T08:16:53;3.50;99.90
1383;DHT22;685;47.196;11.880;2023-02-21T08:19:22;3.70;99.90
1383;DHT22;685;47.196;11.880;2023-02-21T08:21:49;3.90;99.90
1383;DHT22;685;47.196;11.880;2023-02-21T08:24:17;3.80;99.90
1383;DHT22;685;47.196;11.880;2023-02-21T08:26:44;3.70;99.90
1383;DHT22;685;47.196;11.880;2023-02-21T08:29:11;3.80;99.90
1383;DHT22;685;47.196;11.880;2023-02-21T08:31:39;3.60;99.90
1383;DHT22;685;47.196;11.880;2023-02-21T08:34:09;3.80;99.90
1383;DHT22;685;47.196;11.880;2023-02-21T08:36:39;3.60;99.90
1383;DHT22;685;47.196;11.880;2023-02-21T08:39:07;3.50;99.90
1383;DHT22;685;47.196;11.880;2023-02-21T08:41:35;3.10;99.90
1383;DHT22;685;47.196;11.880;2023-02-21T08:44:03;3.10;99.90
1383;DHT22;685;47.196;11.880;2023-02-21T08:46:30;2.90;99.90
1383;DHT22;685;47.196;11.880;2023-02-21T08:48:57;2.90;99.90
1383;DHT22;685;47.196;11.880;2023-02-21T08:51:24;3.30;99.90
1383;DHT22;685;47.196;11.880;2023-02-21T08:53:53;3.60;99.90
1383;DHT22;685;47.196;11.880;2023-02-21T08:56:20;3.80;99.90
1383;DHT22;685;47.196;11.880;2023-02-21T08:58:47;3.80;99.90
1383;DHT22;685;47.196;11.880;2023-02-21T09:01:14;3.90;99.90
1383;DHT22;685;47.196;11.880;2023-02-21T09:03:42;4.00;99.90
1383;DHT22;685;47.196;11.880;2023-02-21T09:06:08;4.10;99.90
1383;DHT22;685;47.196;11.880;2023-02-21T09:08:35;4.20;99.90
1383;DHT22;685;47.196;11.880;2023-02-21T09:11:04;4.30;99.90
1383;DHT22;685;47.196;11.880;2023-02-21T09:13:32;4.40;99.90
1383;DHT22;685;47.196;11.880;2023-02-21T09:16:00;4.30;99.90
1383;DHT22;685;47.196;11.880;2023-02-21T09:18:27;4.50;99.90
1383;DHT22;685;47.196;11.880;2023-02-21T09:20:55;4.60;99.90
1383;DHT22;685;47.196;11.880;2023-02-21T09:23:24;4.80;99.90
1383;DHT22;685;47.196;11.880;2023-02-21T09:25:52;4.80;99.90
1383;DHT22;685;47.196;11.880;2023-02-21T09:28:21;4.90;99.90
1383;DHT22;685;47.196;11.880;2023-02-21T09:30:48;5.00;99.90
1383;DHT22;685;47.196;11.880;2023-02-21T09:33:16;5.10;99.90
1383;DHT22;685;47.196;11.880;2023-02-21T09:35:43;5.20;99.90
1383;DHT22;685;47.196;11.880;2023-02-21T09:38:10;5.40;99.90
1383;DHT22;685;47.196;11.880;2023-02-21T09:40:41;5.50;99.90
1383;DHT22;685;47.196;11.880;2023-02-21T09:43:12;5.60;99.90
1383;DHT22;685;47.196;11.880;2023-02-21T09:45:42;5.70;99.90
1383;DHT22;685;47.196;11.880;2023-02-21T09:48:13;5.80;99.90
1383;DHT22;685;47.196;11.880;2023-02-21T09:50:43;5.90;99.90
1383;DHT22;685;47.196;11.880;2023-02-21T09:53:13;5.80;99.90
1383;DHT22;685;47.196;11.880;2023-02-21T09:55:42;6.00;99.90
1383;DHT22;685;47.196;11.880;2023-02-21T09:58:11;6.10;99.90
1383;DHT22;685;47.196;11.880;2023-02-21T10:00:38;6.20;99.90
1383;DHT22;685;47.196;11.880;2023-02-21T10:03:25;6.30;99.90
1383;DHT22;685;47.196;11.880;2023-02-21T10:05:59;6.40;99.90
1383;DHT22;685;47.196;11.880;2023-02-21T10:08:34;6.50;99.90
1383;DHT22;685;47.196;11.880;2023-02-21T10:11:16;6.50;99.90
1383;DHT22;685;47.196;11.880;2023-02-21T10:13:53;6.70;99.90
1383;DHT22;685;47.196;11.880;2023-02-21T10:16:26;6.80;99.90
1383;DHT22;685;47.196;11.880;2023-02-21T10:19:02;6.90;99.90
1383;DHT22;685;47.196;11.880;2023-02-21T10:21:34;7.10;99.90
1383;DHT22;685;47.196;11.880;2023-02-21T10:24:11;7.20;99.90
1383;DHT22;685;47.196;11.880;2023-02-21T10:26:38;7.30;99.90
1383;DHT22;685;47.196;11.880;2023-02-21T10:29:13;7.40;99.90
1383;DHT22;685;47.196;11.880;2023-02-21T10:31:43;7.50;99.90
1383;DHT22;685;47.196;11.880;2023-02-21T10:34:21;7.60;99.90
1383;DHT22;685;47.196;11.880;2023-02-21T10:36:49;7.60;99.90
1383;DHT22;685;47.196;11.880;2023-02-21T10:39:19;7.80;99.90
1383;DHT22;685;47.196;11.880;2023-02-21T10:41:49;7.80;99.90
1383;DHT22;685;47.196;11.880;2023-02-21T10:44:20;7.90;99.90
1383;DHT22;685;47.196;11.880;2023-02-21T10:46:53;7.90;99.90
1383;DHT22;685;47.196;11.880;2023-02-21T10:49:27;8.10;99.90
1383;DHT22;685;47.196;11.880;2023-02-21T10:52:08;8.10;99.90
1383;DHT22;685;47.196;11.880;2023-02-21T10:54:36;8.10;99.90
1383;DHT22;685;47.196;11.880;2023-02-21T10:57:06;8.20;99.90
1383;DHT22;685;47.196;11.880;2023-02-21T10:59:35;8.30;99.90
1383;DHT22;685;47.196;11.880;2023-02-21T11:02:24;8.40;99.90
1383;DHT22;685;47.196;11.880;2023-02-21T11:04:53;8.60;99.90
1383;DHT22;685;47.196;11.880;2023-02-21T11:07:21;8.60;99.90
1383;DHT22;685;47.196;11.880;2023-02-21T11:09:49;8.60;99.90
1383;DHT22;685;47.196;11.880;2023-02-21T11:12:19;8.70;99.90
1383;DHT22;685;47.196;11.880;2023-02-21T11:15:04;8.80;99.90
1383;DHT22;685;47.196;11.880;2023-02-21T11:17:32;8.90;99.90
1383;DHT22;685;47.196;11.880;2023-02-21T11:20:14;8.90;99.90
1383;DHT22;685;47.196;11.880;2023-02-21T11:22:43;9.00;99.90
1383;DHT22;685;47.196;11.880;2023-02-21T11:25:22;9.00;99.90
1383;DHT22;685;47.196;11.880;2023-02-21T11:28:01;9.10;99.90
1383;DHT22;685;47.196;11.880;2023-02-21T11:30:30;9.30;99.90
1383;DHT22;685;47.196;11.880;2023-02-21T11:32:59;9.20;99.90
1383;DHT22;685;47.196;11.880;2023-02-21T11:35:31;9.40;99.90
1383;DHT22;685;47.196;11.880;2023-02-21T11:38:00;9.50;99.90
1383;DHT22;685;47.196;11.880;2023-02-21T11:40:30;9.50;99.90
1383;DHT22;685;47.196;11.880;2023-02-21T11:43:21;9.60;99.90
1383;DHT22;685;47.196;11.880;2023-02-21T11:46:00;9.90;99.90
1383;DHT22;685;47.196;11.880;2023-02-21T11:48:29;9.90;99.90
1383;DHT22;685;47.196;11.880;2023-02-21T11:51:02;9.90;99.90
1383;DHT22;685;47.196;11.880;2023-02-21T11:53:36;9.80;99.90
1383;DHT22;685;47.196;11.880;2023-02-21T11:56:13;9.90;99.90
1383;DHT22;685;47.196;11.880;2023-02-21T11:58:50;9.80;99.90
1383;DHT22;685;47.196;11.880;2023-02-21T12:01:23;9.80;99.90
1383;DHT22;685;47.196;11.880;2023-02-21T12:04:07;9.90;99.90
1383;DHT22;685;47.196;11.880;2023-02-21T12:06:43;10.10;99.90
1383;DHT22;685;47.196;11.880;2023-02-21T12:09:15;10.20;99.90
1383;DHT22;685;47.196;11.880;2023-02-21T12:11:51;10.00;99.90
1383;DHT22;685;47.196;11.880;2023-02-21T12:14:33;10.00;99.90
1383;DHT22;685;47.196;11.880;2023-02-21T12:17:21;10.00;99.90
1383;DHT22;685;47.196;11.880;2023-02-21T12:20:02;10.20;99.90
1383;DHT22;685;47.196;11.880;2023-02-21T12:22:57;10.50;99.90
1383;DHT22;685;47.196;11.880;2023-02-21T12:25:31;10.60;99.90
1383;DHT22;685;47.196;11.880;2023-02-21T12:28:04;10.60;99.90
1383;DHT22;685;47.196;11.880;2023-02-21T12:30:56;10.30;99.90
1383;DHT22;685;47.196;11.880;2023-02-21T12:33:34;10.40;99.90
1383;DHT22;685;47.196;11.880;2023-02-21T12:36:13;10.70;99.90
1383;DHT22;685;47.196;11.880;2023-02-21T12:39:05;10.90;99.90
1383;DHT22;685;47.196;11.880;2023-02-21T12:41:55;10.90;99.90
1383;DHT22;685;47.196;11.880;2023-02-21T12:44:34;11.00;99.90
1383;DHT22;685;47.196;11.880;2023-02-21T12:47:08;11.00;99.90
1383;DHT22;685;47.196;11.880;2023-02-21T12:49:43;11.00;99.90
1383;DHT22;685;47.196;11.880;2023-02-21T12:52:14;10.90;99.90
1383;DHT22;685;47.196;11.880;2023-02-21T12:54:48;11.00;99.90
1383;DHT22;685;47.196;11.880;2023-02-21T12:57:22;11.00;99.90
1383;DHT22;685;47.196;11.880;2023-02-21T12:59:57;10.90;99.90
1383;DHT22;685;47.196;11.880;2023-02-21T13:02:39;11.00;99.90
1383;DHT22;685;47.196;11.880;2023-02-21T13:05:12;11.20;99.90
1383;DHT22;685;47.196;11.880;2023-02-21T13:07:44;11.30;99.90
1383;DHT22;685;47.196;11.880;2023-02-21T13:10:18;11.00;99.90
1383;DHT22;685;47.196;11.880;2023-02-21T13:12:50;10.80;99.90
1383;DHT22;685;47.196;11.880;2023-02-21T13:15:22;10.70;99.90
1383;DHT22;685;47.196;11.880;2023-02-21T13:17:57;11.20;99.90
1383;DHT22;685;47.196;11.880;2023-02-21T13:20:27;11.50;99.90
1383;DHT22;685;47.196;11.880;2023-02-21T13:26:43;11.50;99.90
1383;DHT22;685;47.196;11.880;2023-02-21T13:29:17;11.50;99.90
1383;DHT22;685;47.196;11.880;2023-02-21T13:31:45;11.60;99.90
1383;DHT22;685;47.196;11.880;2023-02-21T13:34:17;11.80;99.90
1383;DHT22;685;47.196;11.880;2023-02-21T13:36:46;11.80;99.90
1383;DHT22;685;47.196;11.880;2023-02-21T13:39:15;11.80;99.90
1383;DHT22;685;47.196;11.880;2023-02-21T13:41:46;11.70;99.90
1383;DHT22;685;47.196;11.880;2023-02-21T13:44:21;11.80;99.90
1383;DHT22;685;47.196;11.880;2023-02-21T13:47:07;11.90;99.90
1383;DHT22;685;47.196;11.880;2023-02-21T13:49:52;11.80;99.90
1383;DHT22;685;47.196;11.880;2023-02-21T13:55:24;12.00;99.90
1383;DHT22;685;47.196;11.880;2023-02-21T14:00:55;11.90;99.90
1383;DHT22;685;47.196;11.880;2023-02-21T14:03:31;11.90;99.90
1383;DHT22;685;47.196;11.880;2023-02-21T14:06:32;11.90;99.90
1383;DHT22;685;47.196;11.880;2023-02-21T14:09:03;12.00;99.90
1383;DHT22;685;47.196;11.880;2023-02-21T14:11:36;12.00;99.90
1383;DHT22;685;47.196;11.880;2023-02-21T14:14:19;12.00;99.90
1383;DHT22;685;47.196;11.880;2023-02-21T14:16:48;11.90;99.90
1383;DHT22;685;47.196;11.880;2023-02-21T14:19:24;11.90;99.90
1383;DHT22;685;47.196;11.880;2023-02-21T14:21:58;11.80;99.90
1383;DHT22;685;47.196;11.880;2023-02-21T14:24:30;11.80;99.90
1383;DHT22;685;47.196;11.880;2023-02-21T14:27:02;11.80;99.90
1383;DHT22;685;47.196;11.880;2023-02-21T14:29:41;11.80;99.90
1383;DHT22;685;47.196;11.880;2023-02-21T14:32:26;11.80;99.90
1383;DHT22;685;47.196;11.880;2023-02-21T14:34:55;11.80;99.90
1383;DHT22;685;47.196;11.880;2023-02-21T14:37:30;11.80;99.90
1383;DHT22;685;47.196;11.880;2023-02-21T14:40:00;11.70;99.90
1383;DHT22;685;47.196;11.880;2023-02-21T14:42:51;11.70;99.90
1383;DHT22;685;47.196;11.880;2023-02-21T14:45:43;11.70;99.90
1383;DHT22;685;47.196;11.880;2023-02-21T14:48:37;11.60;99.90
1383;DHT22;685;47.196;11.880;2023-02-21T14:58:03;11.40;99.90
1383;DHT22;685;47.196;11.880;2023-02-21T15:00:47;11.20;99.90
1383;DHT22;685;47.196;11.880;2023-02-21T15:03:21;11.10;99.90
1383;DHT22;685;47.196;11.880;2023-02-21T15:05:58;10.90;99.90
1383;DHT22;685;47.196;11.880;2023-02-21T15:08:27;10.90;99.90
1383;DHT22;685;47.196;11.880;2023-02-21T15:10:58;10.90;99.90
1383;DHT22;685;47.196;11.880;2023-02-21T15:13:28;10.70;99.90
1383;DHT22;685;47.196;11.880;2023-02-21T15:15:59;10.60;99.90
1383;DHT22;685;47.196;11.880;2023-02-21T15:18:28;10.50;99.90
1383;DHT22;685;47.196;11.880;2023-02-21T15:21:04;10.50;99.90
1383;DHT22;685;47.196;11.880;2023-02-21T15:23:32;10.40;99.90
1383;DHT22;685;47.196;11.880;2023-02-21T15:26:08;10.40;99.90
1383;DHT22;685;47.196;11.880;2023-02-21T15:28:40;10.30;99.90
1383;DHT22;685;47.196;11.880;2023-02-21T15:31:09;10.30;99.90
1383;DHT22;685;47.196;11.880;2023-02-21T15:33:39;10.20;99.90
1383;DHT22;685;47.196;11.880;2023-02-21T15:36:12;10.20;99.90
1383;DHT22;685;47.196;11.880;2023-02-21T15:38:43;10.20;99.90
1383;DHT22;685;47.196;11.880;2023-02-21T15:41:17;10.20;99.90
1383;DHT22;685;47.196;11.880;2023-02-21T15:43:49;10.20;99.90
1383;DHT22;685;47.196;11.880;2023-02-21T15:46:22;10.20;99.90
1383;DHT22;685;47.196;11.880;2023-02-21T15:48:50;10.20;99.90
1383;DHT22;685;47.196;11.880;2023-02-21T15:51:18;10.20;99.90
1383;DHT22;685;47.196;11.880;2023-02-21T15:54:06;10.10;99.90
1383;DHT22;685;47.196;11.880;2023-02-21T15:56:34;10.10;99.90
1383;DHT22;685;47.196;11.880;2023-02-21T15:59:07;10.10;99.90
1383;DHT22;685;47.196;11.880;2023-02-21T16:01:35;10.00;99.90
1383;DHT22;685;47.196;11.880;2023-02-21T16:04:20;9.70;99.90
1383;DHT22;685;47.196;11.880;2023-02-21T16:06:50;9.50;99.90
1383;DHT22;685;47.196;11.880;2023-02-21T16:09:22;9.10;99.90
1383;DHT22;685;47.196;11.880;2023-02-21T16:11:53;9.20;99.90
1383;DHT22;685;47.196;11.880;2023-02-21T16:14:24;9.20;99.90
1383;DHT22;685;47.196;11.880;2023-02-21T16:17:04;9.30;99.90
1383;DHT22;685;47.196;11.880;2023-02-21T16:19:32;9.60;99.90
1383;DHT22;685;47.196;11.880;2023-02-21T16:22:12;9.50;99.90
1383;DHT22;685;47.196;11.880;2023-02-21T16:24:40;9.50;99.90
1383;DHT22;685;47.196;11.880;2023-02-21T16:27:15;9.50;99.90
1383;DHT22;685;47.196;11.880;2023-02-21T16:29:42;9.10;99.90
1383;DHT22;685;47.196;11.880;2023-02-21T16:32:15;9.00;99.90
1383;DHT22;685;47.196;11.880;2023-02-21T16:34:44;8.90;99.90
1383;DHT22;685;47.196;11.880;2023-02-21T16:37:12;9.00;99.90
1383;DHT22;685;47.196;11.880;2023-02-21T16:39:41;8.70;99.90
1383;DHT22;685;47.196;11.880;2023-02-21T16:42:08;8.70;99.90
1383;DHT22;685;47.196;11.880;2023-02-21T16:44:35;8.40;99.90
1383;DHT22;685;47.196;11.880;2023-02-21T16:47:02;8.50;99.90
1383;DHT22;685;47.196;11.880;2023-02-21T16:49:33;8.50;99.90
1383;DHT22;685;47.196;11.880;2023-02-21T16:52:00;8.40;99.90
1383;DHT22;685;47.196;11.880;2023-02-21T16:54:27;8.30;99.90
1383;DHT22;685;47.196;11.880;2023-02-21T16:56:54;8.20;99.90
1383;DHT22;685;47.196;11.880;2023-02-21T16:59:23;8.30;99.90
1383;DHT22;685;47.196;11.880;2023-02-21T17:01:50;8.30;99.90
1383;DHT22;685;47.196;11.880;2023-02-21T17:04:19;8.20;99.90
1383;DHT22;685;47.196;11.880;2023-02-21T17:06:52;8.00;99.90
1383;DHT22;685;47.196;11.880;2023-02-21T17:09:21;7.70;99.90
1383;DHT22;685;47.196;11.880;2023-02-21T17:11:49;8.00;99.90
1383;DHT22;685;47.196;11.880;2023-02-21T17:14:16;7.90;99.90
1383;DHT22;685;47.196;11.880;2023-02-21T17:16:43;7.70;99.90
1383;DHT22;685;47.196;11.880;2023-02-21T17:19:12;7.80;99.90
1383;DHT22;685;47.196;11.880;2023-02-21T17:21:40;7.90;99.90
1383;DHT22;685;47.196;11.880;2023-02-21T17:24:10;7.90;99.90
1383;DHT22;685;47.196;11.880;2023-02-21T17:26:37;8.10;99.90
1383;DHT22;685;47.196;11.880;2023-02-21T17:29:04;8.10;99.90
1383;DHT22;685;47.196;11.880;2023-02-21T17:31:32;8.20;99.90
1383;DHT22;685;47.196;11.880;2023-02-21T17:33:59;8.30;99.90
1383;DHT22;685;47.196;11.880;2023-02-21T17:36:27;8.40;99.90
1383;DHT22;685;47.196;11.880;2023-02-21T17:38:55;8.30;99.90